createdAt,value
2018-11-07T00:01:02.635Z,14.85
2018-11-07T00:03:30.895Z,17.90
2018-11-07T00:05:59.155Z,15.35
2018-11-07T00:08:34.053Z,17.30
2018-11-07T00:11:02.299Z,16.45
2018-11-07T00:13:30.554Z,17.30
2018-11-07T00:15:58.839Z,18.00
2018-11-07T00:18:27.075Z,14.75
2018-11-07T00:20:55.420Z,16.00
2018-11-07T00:23:23.714Z,16.40
2018-11-07T00:25:52.010Z,14.00
2018-11-07T00:28:20.304Z,16.55
2018-11-07T00:30:48.587Z,18.35
2018-11-07T00:33:16.845Z,16.60
2018-11-07T00:35:45.158Z,15.85
2018-11-07T00:38:13.491Z,16.60
2018-11-07T00:40:41.783Z,15.55
2018-11-07T00:43:10.043Z,12.13
2018-11-07T00:45:38.318Z,15.20
2018-11-07T00:48:06.610Z,14.75
2018-11-07T00:50:34.871Z,14.05
2018-11-07T00:53:03.167Z,11.68
2018-11-07T00:55:31.422Z,12.98
2018-11-07T00:57:59.781Z,13.98
2018-11-07T01:00:28.005Z,14.28
2018-11-07T01:02:56.281Z,15.98
2018-11-07T01:05:24.566Z,15.18
2018-11-07T01:07:52.834Z,12.37
2018-11-07T01:10:21.539Z,15.23
2018-11-07T01:12:50.033Z,12.85
2018-11-07T01:15:18.358Z,12.80
2018-11-07T01:17:46.682Z,14.45
2018-11-07T01:20:15.227Z,15.05
2018-11-07T01:22:43.719Z,17.75
2018-11-07T01:25:12.000Z,14.15
2018-11-07T01:27:40.271Z,14.38
2018-11-07T01:30:10.650Z,14.70
2018-11-07T01:32:39.028Z,16.12
2018-11-07T01:35:07.434Z,13.60
2018-11-07T01:37:35.718Z,13.60
2018-11-07T01:40:05.851Z,13.18
2018-11-07T01:42:34.146Z,12.55
2018-11-07T01:45:02.408Z,14.60
2018-11-07T01:47:30.679Z,13.53
2018-11-07T01:49:58.940Z,12.73
2018-11-07T01:52:27.222Z,13.13
2018-11-07T01:54:55.513Z,13.03
2018-11-07T01:57:23.759Z,13.80
2018-11-07T01:59:52.051Z,16.27
2018-11-07T02:02:20.407Z,12.23
2018-11-07T02:04:48.628Z,14.78
2018-11-07T02:07:16.943Z,15.50
2018-11-07T02:09:45.217Z,14.73
2018-11-07T02:12:13.639Z,14.25
2018-11-07T02:14:41.873Z,12.88
2018-11-07T02:17:10.144Z,15.72
2018-11-07T02:19:38.572Z,15.58
2018-11-07T02:22:06.892Z,13.80
2018-11-07T02:24:35.341Z,14.85
2018-11-07T02:27:03.658Z,13.72
2018-11-07T02:29:32.015Z,14.43
2018-11-07T02:32:00.256Z,17.52
2018-11-07T02:34:28.536Z,14.18
2018-11-07T02:36:56.941Z,15.75
2018-11-07T02:39:25.187Z,13.60
2018-11-07T02:41:53.492Z,15.90
2018-11-07T02:44:21.740Z,16.45
2018-11-07T02:46:50.031Z,16.50
2018-11-07T02:49:18.294Z,14.28
2018-11-07T02:51:46.566Z,13.40
2018-11-07T02:54:14.834Z,17.17
2018-11-07T02:56:43.150Z,16.30
2018-11-07T02:59:11.417Z,18.65
2018-11-07T03:01:39.799Z,12.28
2018-11-07T03:04:08.084Z,15.28
2018-11-07T03:06:36.330Z,15.20
2018-11-07T03:09:07.589Z,16.37
2018-11-07T03:11:35.849Z,15.83
2018-11-07T03:14:04.138Z,16.87
2018-11-07T03:16:32.421Z,15.83
2018-11-07T03:19:00.678Z,14.05
2018-11-07T03:21:29.071Z,15.80
2018-11-07T03:23:57.337Z,19.48
2018-11-07T03:26:25.620Z,15.63
2018-11-07T03:28:53.895Z,13.75
2018-11-07T03:31:22.162Z,17.80
2018-11-07T03:33:50.431Z,16.52
2018-11-07T03:36:18.719Z,15.45
2018-11-07T03:38:47.002Z,13.60
2018-11-07T03:41:15.282Z,15.32
2018-11-07T03:43:43.545Z,16.57
2018-11-07T03:46:11.819Z,17.95
2018-11-07T03:48:40.140Z,15.48
2018-11-07T03:51:08.397Z,18.40
2018-11-07T03:53:36.668Z,14.87
2018-11-07T03:56:05.003Z,15.72
2018-11-07T03:58:33.272Z,16.05
2018-11-07T04:01:01.586Z,13.78
2018-11-07T04:03:29.994Z,15.35
2018-11-07T04:05:58.298Z,16.23
2018-11-07T04:08:26.593Z,14.53
2018-11-07T04:10:54.906Z,14.20
2018-11-07T04:13:23.250Z,16.60
2018-11-07T04:15:51.558Z,17.10
2018-11-07T04:18:19.836Z,17.37
2018-11-07T04:20:48.200Z,18.40
2018-11-07T04:23:16.543Z,16.55
2018-11-07T04:25:44.751Z,18.95
2018-11-07T04:28:13.047Z,17.92
2018-11-07T04:30:41.307Z,20.25
2018-11-07T04:33:09.563Z,18.40
2018-11-07T04:35:37.947Z,14.23
2018-11-07T04:38:06.196Z,15.55
2018-11-07T04:40:34.419Z,17.90
2018-11-07T04:43:02.683Z,12.53
2018-11-07T04:45:37.608Z,14.50
2018-11-07T04:48:06.089Z,18.67
2018-11-07T04:50:34.286Z,14.58
2018-11-07T04:53:02.552Z,17.25
2018-11-07T04:55:30.802Z,14.90
2018-11-07T04:57:59.100Z,14.13
2018-11-07T05:00:27.375Z,13.80
2018-11-07T05:02:55.664Z,15.00
2018-11-07T05:05:23.941Z,12.68
2018-11-07T05:07:52.341Z,13.22
2018-11-07T05:10:20.691Z,19.55
2018-11-07T05:12:48.993Z,12.10
2018-11-07T05:15:17.251Z,16.85
2018-11-07T05:17:45.526Z,12.82
2018-11-07T05:20:13.803Z,16.25
2018-11-07T05:22:42.073Z,15.72
2018-11-07T05:25:11.195Z,11.48
2018-11-07T05:27:39.861Z,14.10
2018-11-07T05:30:09.259Z,14.43
2018-11-07T05:32:37.603Z,15.25
2018-11-07T05:35:06.534Z,14.00
2018-11-07T05:37:34.824Z,18.92
2018-11-07T05:40:03.091Z,13.38
2018-11-07T05:42:31.369Z,16.20
2018-11-07T05:44:59.643Z,15.68
2018-11-07T05:47:27.916Z,14.20
2018-11-07T05:49:56.201Z,15.93
2018-11-07T05:52:24.519Z,14.35
2018-11-07T05:54:52.793Z,12.80
2018-11-07T05:57:21.119Z,13.80
2018-11-07T05:59:49.435Z,13.60
2018-11-07T06:02:17.769Z,15.95
2018-11-07T06:04:46.035Z,17.77
2018-11-07T06:07:14.319Z,16.87
2018-11-07T06:09:42.620Z,15.32
2018-11-07T06:12:10.879Z,16.25
2018-11-07T06:14:39.147Z,16.37
2018-11-07T06:17:07.449Z,17.30
2018-11-07T06:19:35.820Z,20.25
2018-11-07T06:22:04.098Z,14.15
2018-11-07T06:24:32.576Z,16.30
2018-11-07T06:27:00.817Z,14.93
2018-11-07T06:29:29.129Z,20.27
2018-11-07T06:31:57.473Z,17.90
2018-11-07T06:34:25.726Z,22.77
2018-11-07T06:36:53.971Z,17.75
2018-11-07T06:39:22.633Z,20.45
2018-11-07T06:41:50.995Z,17.12
2018-11-07T06:44:19.277Z,19.15
2018-11-07T06:46:47.801Z,21.42
2018-11-07T06:49:16.356Z,22.35
2018-11-07T06:51:44.676Z,22.90
2018-11-07T06:54:12.960Z,19.27
2018-11-07T06:56:41.322Z,20.60
2018-11-07T06:59:09.651Z,20.05
2018-11-07T07:01:38.969Z,22.22
2018-11-07T07:04:07.364Z,22.13
2018-11-07T07:06:35.644Z,20.30
2018-11-07T07:09:05.873Z,31.85
2018-11-07T07:11:34.207Z,26.02
2018-11-07T07:14:02.466Z,19.48
2018-11-07T07:16:31.032Z,23.07
2018-11-07T07:18:59.460Z,19.82
2018-11-07T07:21:27.783Z,17.15
2018-11-07T07:23:56.058Z,23.42
2018-11-07T07:26:24.410Z,22.70
2018-11-07T07:28:52.663Z,17.82
2018-11-07T07:31:20.967Z,18.15
2018-11-07T07:33:49.468Z,20.27
2018-11-07T07:36:18.010Z,19.67
2018-11-07T07:38:46.304Z,23.40
2018-11-07T07:41:14.817Z,18.07
2018-11-07T07:43:43.309Z,23.57
2018-11-07T07:46:11.538Z,19.77
2018-11-07T07:48:39.874Z,17.95
2018-11-07T07:51:08.194Z,19.82
2018-11-07T07:53:36.522Z,28.15
2018-11-07T07:56:04.891Z,18.87
2018-11-07T07:58:33.283Z,23.40
2018-11-07T08:01:01.556Z,17.15
2018-11-07T08:03:29.971Z,14.33
2018-11-07T08:05:58.318Z,21.42
2018-11-07T08:08:26.646Z,19.17
2018-11-07T08:10:55.105Z,16.82
2018-11-07T08:13:23.387Z,19.37
2018-11-07T08:15:51.782Z,15.65
2018-11-07T08:18:20.056Z,17.93
2018-11-07T08:20:48.392Z,26.63
2018-11-07T08:23:16.844Z,16.30
2018-11-07T08:25:45.147Z,21.80
2018-11-07T08:28:13.599Z,14.75
2018-11-07T08:30:41.896Z,17.90
2018-11-07T08:33:10.152Z,17.13
2018-11-07T08:35:38.470Z,17.77
2018-11-07T08:38:06.765Z,21.23
2018-11-07T08:40:35.031Z,16.20
2018-11-07T08:43:03.330Z,18.40
2018-11-07T08:45:31.664Z,19.10
2018-11-07T08:48:00.065Z,16.73
2018-11-07T08:50:28.497Z,17.47
2018-11-07T08:52:56.745Z,15.90
2018-11-07T08:55:25.017Z,25.40
2018-11-07T08:57:53.284Z,25.73
2018-11-07T09:00:23.703Z,18.17
2018-11-07T09:02:52.051Z,17.40
2018-11-07T09:05:21.268Z,18.57
2018-11-07T09:07:49.788Z,16.90
2018-11-07T09:10:19.486Z,16.00
2018-11-07T09:12:47.807Z,20.17
2018-11-07T09:15:18.450Z,16.03
2018-11-07T09:17:46.831Z,18.33
2018-11-07T09:20:17.231Z,18.50
2018-11-07T09:22:45.568Z,14.10
2018-11-07T09:25:14.675Z,16.23
2018-11-07T09:27:43.447Z,12.30
2018-11-07T09:30:14.382Z,13.90
2018-11-07T09:32:42.764Z,13.17
2018-11-07T09:35:11.863Z,15.10
2018-11-07T09:37:40.283Z,11.63
2018-11-07T09:40:11.841Z,12.70
2018-11-07T09:42:40.750Z,15.20
2018-11-07T09:45:11.539Z,15.70
2018-11-07T09:47:40.606Z,15.70
2018-11-07T09:50:09.810Z,15.80
2018-11-07T09:52:38.453Z,14.27
2018-11-07T09:55:08.515Z,13.10
2018-11-07T09:57:36.887Z,11.50
2018-11-07T10:00:07.222Z,11.90
2018-11-07T10:02:35.758Z,15.07
2018-11-07T10:05:04.429Z,10.57
2018-11-07T10:07:32.756Z,14.53
2018-11-07T10:10:01.114Z,13.57
2018-11-07T10:12:29.465Z,14.80
2018-11-07T10:14:57.688Z,13.13
2018-11-07T10:17:25.947Z,15.73
2018-11-07T10:19:54.272Z,12.73
2018-11-07T10:22:22.528Z,12.60
2018-11-07T10:24:50.849Z,16.20
2018-11-07T10:27:19.418Z,13.47
2018-11-07T10:29:47.758Z,13.90
2018-11-07T10:32:15.803Z,13.03
2018-11-07T10:34:44.168Z,14.80
2018-11-07T10:37:12.483Z,13.17
2018-11-07T10:39:40.877Z,16.53
2018-11-07T10:42:09.199Z,13.00
2018-11-07T10:44:37.606Z,13.50
2018-11-07T10:47:05.912Z,15.80
2018-11-07T10:49:34.230Z,15.60
2018-11-07T10:52:02.547Z,15.43
2018-11-07T10:54:30.839Z,14.77
2018-11-07T10:56:59.210Z,15.53
2018-11-07T10:59:27.548Z,14.33
2018-11-07T11:02:04.842Z,24.83
2018-11-07T11:04:33.261Z,16.10
2018-11-07T11:07:01.554Z,17.70
2018-11-07T11:09:29.869Z,17.93
2018-11-07T11:11:58.266Z,17.43
2018-11-07T11:14:26.550Z,15.80
2018-11-07T11:16:54.904Z,16.17
2018-11-07T11:19:23.200Z,17.23
2018-11-07T11:21:51.492Z,13.73
2018-11-07T11:24:19.770Z,17.17
2018-11-07T11:26:48.096Z,16.50
2018-11-07T11:29:16.339Z,16.53
2018-11-07T11:31:44.854Z,15.10
2018-11-07T11:34:13.328Z,20.83
2018-11-07T11:36:41.464Z,15.83
2018-11-07T11:39:11.323Z,19.27
2018-11-07T11:41:39.795Z,16.37
2018-11-07T11:44:08.643Z,15.30
2018-11-07T11:46:36.904Z,13.80
2018-11-07T11:49:05.732Z,17.07
2018-11-07T11:51:34.537Z,14.20
2018-11-07T11:54:02.809Z,15.77
2018-11-07T11:56:31.126Z,16.87
2018-11-07T11:58:59.600Z,19.10
2018-11-07T12:01:27.799Z,16.60
2018-11-07T12:03:56.185Z,17.60
2018-11-07T12:06:24.552Z,17.37
2018-11-07T12:08:52.747Z,16.97
2018-11-07T12:11:21.002Z,18.30
2018-11-07T12:13:49.392Z,17.67
2018-11-07T12:16:17.675Z,16.13
2018-11-07T12:18:45.981Z,16.57
2018-11-07T12:21:14.255Z,14.80
2018-11-07T12:23:42.540Z,17.70
2018-11-07T12:26:10.949Z,18.03
2018-11-07T12:28:39.411Z,19.13
2018-11-07T12:31:07.680Z,15.10
2018-11-07T12:33:36.025Z,20.87
2018-11-07T12:36:04.483Z,17.73
2018-11-07T12:38:33.019Z,16.10
2018-11-07T12:41:01.433Z,15.47
2018-11-07T12:43:29.758Z,17.20
2018-11-07T12:45:58.033Z,15.97
2018-11-07T12:48:26.295Z,16.87
2018-11-07T12:50:54.559Z,15.67
2018-11-07T12:53:22.855Z,18.07
2018-11-07T12:55:51.123Z,21.13
2018-11-07T12:58:19.653Z,16.93
2018-11-07T13:00:47.690Z,19.43
2018-11-07T13:03:15.957Z,17.50
2018-11-07T13:05:44.231Z,16.80
2018-11-07T13:08:12.491Z,17.10
2018-11-07T13:10:40.828Z,19.17
2018-11-07T13:13:09.157Z,17.77
2018-11-07T13:15:37.423Z,16.90
2018-11-07T13:18:06.215Z,16.97
2018-11-07T13:20:34.483Z,17.13
2018-11-07T13:23:02.894Z,17.90
2018-11-07T13:25:31.211Z,17.70
2018-11-07T13:27:59.650Z,18.23
2018-11-07T13:30:27.840Z,17.97
2018-11-07T13:32:56.192Z,16.10
2018-11-07T13:35:24.555Z,20.20
2018-11-07T13:37:53.456Z,17.30
2018-11-07T13:40:22.844Z,17.83
2018-11-07T13:42:51.221Z,18.23
2018-11-07T13:45:20.297Z,19.97
2018-11-07T13:47:49.745Z,19.47
2018-11-07T13:50:18.331Z,19.50
2018-11-07T13:52:46.597Z,18.07
2018-11-07T13:55:15.262Z,20.47
2018-11-07T13:57:43.855Z,21.40
2018-11-07T14:00:15.431Z,17.40
2018-11-07T14:02:44.175Z,18.83
2018-11-07T14:05:12.900Z,18.83
2018-11-07T14:07:41.525Z,19.50
2018-11-07T14:10:12.682Z,18.83
2018-11-07T14:12:41.312Z,19.07
2018-11-07T14:15:11.641Z,19.80
2018-11-07T14:17:39.954Z,20.43
2018-11-07T14:20:08.401Z,20.83
2018-11-07T14:22:36.913Z,25.20
2018-11-07T14:25:05.888Z,19.40
2018-11-07T14:27:34.365Z,21.50
2018-11-07T14:30:03.171Z,22.93
2018-11-07T14:32:31.977Z,20.60
2018-11-07T14:35:00.342Z,24.23
2018-11-07T14:37:28.619Z,22.20
2018-11-07T14:39:56.992Z,23.23
2018-11-07T14:42:25.240Z,22.93
2018-11-07T14:44:53.562Z,20.13
2018-11-07T14:47:22.051Z,21.40
2018-11-07T14:49:50.160Z,26.77
2018-11-07T14:52:18.502Z,21.50
2018-11-07T14:54:46.801Z,20.07
2018-11-07T14:57:15.136Z,24.33
2018-11-07T14:59:43.431Z,25.70
2018-11-07T15:02:11.738Z,24.47
2018-11-07T15:04:40.088Z,23.47
2018-11-07T15:07:08.437Z,21.73
2018-11-07T15:09:36.773Z,21.90
2018-11-07T15:12:05.985Z,20.97
2018-11-07T15:14:34.382Z,22.43
2018-11-07T15:17:02.629Z,26.53
2018-11-07T15:19:30.968Z,22.53
2018-11-07T15:22:04.304Z,21.73
2018-11-07T15:24:33.839Z,24.67
2018-11-07T15:27:10.627Z,25.50
2018-11-07T15:29:44.521Z,21.53
2018-11-07T15:32:13.310Z,23.07
2018-11-07T15:34:49.661Z,25.33
2018-11-07T15:37:19.601Z,24.77
2018-11-07T15:39:48.458Z,37.63
2018-11-07T15:42:16.882Z,29.27
2018-11-07T15:44:45.382Z,25.83
2018-11-07T15:47:13.779Z,24.30
2018-11-07T15:49:42.674Z,25.40
2018-11-07T15:52:11.350Z,26.70
2018-11-07T15:54:39.626Z,24.97
2018-11-07T15:57:07.956Z,30.50
2018-11-07T15:59:36.282Z,25.80
2018-11-07T16:02:04.842Z,24.53
2018-11-07T16:04:33.142Z,30.30
2018-11-07T16:07:01.515Z,28.27
2018-11-07T16:09:29.811Z,29.23
2018-11-07T16:11:58.151Z,31.75
2018-11-07T16:14:26.706Z,34.97
2018-11-07T16:16:54.977Z,29.48
2018-11-07T16:19:23.288Z,30.63
2018-11-07T16:21:51.592Z,29.80
2018-11-07T16:24:19.968Z,32.13
2018-11-07T16:26:48.353Z,28.60
2018-11-07T16:29:16.840Z,27.52
2018-11-07T16:31:45.155Z,30.10
2018-11-07T16:34:13.546Z,27.10
2018-11-07T16:36:41.928Z,34.08
2018-11-07T16:39:11.159Z,35.17
2018-11-07T16:41:39.665Z,35.37
2018-11-07T16:44:07.929Z,34.83
2018-11-07T16:46:36.272Z,31.37
2018-11-07T16:49:04.774Z,36.42
2018-11-07T16:51:33.487Z,37.40
2018-11-07T16:54:02.326Z,31.15
2018-11-07T16:56:30.751Z,30.30
2018-11-07T16:58:59.364Z,34.90
2018-11-07T17:01:27.641Z,31.20
2018-11-07T17:03:55.953Z,30.70
2018-11-07T17:06:24.304Z,30.07
2018-11-07T17:08:52.746Z,31.07
2018-11-07T17:11:21.125Z,30.63
2018-11-07T17:13:49.397Z,29.03
2018-11-07T17:16:17.679Z,25.50
2018-11-07T17:18:45.994Z,31.17
2018-11-07T17:21:14.311Z,29.27
2018-11-07T17:23:42.684Z,33.17
2018-11-07T17:26:11.068Z,30.80
2018-11-07T17:28:39.342Z,35.70
2018-11-07T17:31:07.614Z,29.43
2018-11-07T17:33:35.964Z,30.10
2018-11-07T17:36:04.502Z,32.60
2018-11-07T17:38:32.912Z,32.70
2018-11-07T17:41:01.102Z,31.30
2018-11-07T17:43:29.393Z,34.03
2018-11-07T17:45:57.676Z,32.87
2018-11-07T17:48:25.999Z,32.13
2018-11-07T17:50:54.336Z,40.17
2018-11-07T17:53:22.734Z,36.80
2018-11-07T17:55:51.107Z,34.93
2018-11-07T17:58:19.379Z,35.33
2018-11-07T18:00:47.683Z,38.60
2018-11-07T18:03:15.995Z,31.80
2018-11-07T18:05:44.267Z,68.77
2018-11-07T18:08:12.595Z,33.20
2018-11-07T18:10:40.866Z,31.87
2018-11-07T18:13:09.205Z,30.23
2018-11-07T18:15:37.547Z,34.03
2018-11-07T18:18:06.215Z,34.93
2018-11-07T18:20:34.468Z,32.63
2018-11-07T18:23:02.846Z,34.50
2018-11-07T18:25:31.290Z,36.60
2018-11-07T18:27:59.794Z,33.70
2018-11-07T18:30:28.091Z,37.63
2018-11-07T18:32:56.362Z,33.67
2018-11-07T18:35:24.741Z,39.87
2018-11-07T18:37:53.471Z,35.93
2018-11-07T18:40:22.687Z,35.77
2018-11-07T18:42:51.100Z,32.53
2018-11-07T18:45:19.380Z,37.00
2018-11-07T18:47:48.055Z,43.10
2018-11-07T18:50:18.078Z,38.02
2018-11-07T18:52:46.243Z,31.07
2018-11-07T18:55:15.619Z,32.58
2018-11-07T18:57:44.522Z,34.00
2018-11-07T19:00:15.142Z,32.50
2018-11-07T19:02:44.060Z,35.38
2018-11-07T19:05:12.654Z,37.20
2018-11-07T19:07:41.232Z,34.00
2018-11-07T19:10:13.599Z,33.23
2018-11-07T19:12:42.257Z,30.82
2018-11-07T19:15:14.118Z,33.38
2018-11-07T19:17:43.462Z,46.10
2018-11-07T19:20:13.256Z,45.23
2018-11-07T19:22:41.719Z,41.70
2018-11-07T19:25:12.932Z,44.20
2018-11-07T19:27:41.340Z,39.60
2018-11-07T19:30:15.706Z,40.28
2018-11-07T19:32:45.265Z,41.02
2018-11-07T19:35:14.868Z,37.58
2018-11-07T19:37:43.822Z,37.42
2018-11-07T19:40:13.397Z,33.53
2018-11-07T19:42:42.116Z,35.85
2018-11-07T19:45:12.258Z,33.88
2018-11-07T19:47:40.757Z,32.23
2018-11-07T19:50:11.760Z,31.95
2018-11-07T19:52:40.278Z,34.03
2018-11-07T19:55:11.248Z,34.33
2018-11-07T19:57:39.795Z,34.10
2018-11-07T20:00:11.113Z,28.38
2018-11-07T20:02:39.446Z,30.43
2018-11-07T20:05:07.889Z,31.00
2018-11-07T20:07:37.059Z,33.50
2018-11-07T20:10:07.752Z,29.75
2018-11-07T20:12:36.043Z,32.58
2018-11-07T20:15:04.921Z,29.77
2018-11-07T20:17:33.283Z,30.17
2018-11-07T20:20:01.615Z,30.27
2018-11-07T20:22:30.236Z,32.20
2018-11-07T20:24:58.658Z,28.10
2018-11-07T20:27:27.119Z,30.30
2018-11-07T20:29:55.523Z,29.82
2018-11-07T20:32:24.640Z,30.82
2018-11-07T20:34:53.163Z,31.80
2018-11-07T20:37:21.526Z,32.53
2018-11-07T20:39:50.237Z,28.90
2018-11-07T20:42:18.650Z,26.77
2018-11-07T20:44:47.156Z,29.10
2018-11-07T20:47:15.594Z,26.65
2018-11-07T20:49:44.085Z,25.35
2018-11-07T20:52:12.370Z,29.05
2018-11-07T20:54:40.776Z,28.70
2018-11-07T20:57:09.245Z,31.15
2018-11-07T20:59:37.564Z,31.35
2018-11-07T21:02:05.894Z,29.40
2018-11-07T21:04:34.273Z,30.40
2018-11-07T21:07:02.723Z,25.90
2018-11-07T21:09:31.397Z,26.77
2018-11-07T21:11:59.908Z,29.32
2018-11-07T21:14:28.381Z,28.65
2018-11-07T21:16:56.863Z,27.80
2018-11-07T21:19:25.071Z,28.92
2018-11-07T21:21:53.942Z,30.23
2018-11-07T21:24:22.331Z,29.10
2018-11-07T21:26:50.794Z,37.80
2018-11-07T21:29:19.137Z,28.25
2018-11-07T21:31:47.767Z,29.10
2018-11-07T21:34:16.316Z,29.80
2018-11-07T21:36:44.631Z,29.77
2018-11-07T21:39:13.810Z,28.80
2018-11-07T21:41:42.227Z,23.05
2018-11-07T21:44:10.697Z,26.57
2018-11-07T21:46:45.507Z,28.57
2018-11-07T21:49:13.956Z,30.17
2018-11-07T21:51:42.264Z,32.65
2018-11-07T21:54:10.550Z,30.40
2018-11-07T21:56:38.857Z,31.40
2018-11-07T21:59:07.162Z,31.70
2018-11-07T22:01:35.465Z,30.12
2018-11-07T22:04:03.830Z,27.73
2018-11-07T22:06:32.293Z,23.85
2018-11-07T22:09:05.899Z,29.32
2018-11-07T22:11:34.281Z,23.20
2018-11-07T22:14:02.568Z,29.50
2018-11-07T22:16:31.064Z,25.62
2018-11-07T22:18:59.339Z,23.90
2018-11-07T22:21:27.603Z,33.25
2018-11-07T22:23:55.942Z,23.45
2018-11-07T22:26:24.178Z,25.92
2018-11-07T22:28:52.459Z,27.07
2018-11-07T22:31:20.771Z,26.52
2018-11-07T22:33:49.007Z,26.90
2018-11-07T22:36:17.277Z,27.07
2018-11-07T22:38:45.527Z,23.38
2018-11-07T22:41:13.867Z,26.97
2018-11-07T22:43:42.146Z,24.12
2018-11-07T22:46:10.483Z,25.72
2018-11-07T22:48:38.958Z,24.82
2018-11-07T22:51:07.251Z,27.67
2018-11-07T22:53:35.700Z,28.12
2018-11-07T22:56:04.008Z,28.15
2018-11-07T22:58:32.264Z,33.30
2018-11-07T23:01:06.058Z,32.25
2018-11-07T23:03:34.366Z,29.07
2018-11-07T23:06:02.628Z,36.80
2018-11-07T23:08:31.015Z,28.77
2018-11-07T23:10:59.306Z,27.32
2018-11-07T23:13:27.629Z,29.70
2018-11-07T23:15:55.993Z,27.87
2018-11-07T23:18:24.315Z,26.12
2018-11-07T23:20:52.575Z,26.48
2018-11-07T23:23:20.891Z,25.72
2018-11-07T23:25:49.198Z,21.30
2018-11-07T23:28:17.507Z,22.58
2018-11-07T23:30:45.800Z,23.90
2018-11-07T23:33:14.078Z,24.75
2018-11-07T23:35:42.372Z,23.57
2018-11-07T23:38:10.658Z,21.70
2018-11-07T23:40:38.992Z,22.65
2018-11-07T23:43:07.275Z,22.37
2018-11-07T23:45:35.598Z,24.82
2018-11-07T23:48:03.862Z,28.12
2018-11-07T23:50:32.116Z,25.27
2018-11-07T23:53:00.387Z,30.23
2018-11-07T23:55:28.640Z,24.63
2018-11-07T23:57:56.904Z,22.77
